sensor_id;sensor_type;location;lat;lon;timestamp;pressure;altitude;pressure_sealevel;temperature;humidity
39897;BME280;25567;48.276;14.242;2022-10-03T00:01:57;98825.56;;;11.42;100.00
39897;BME280;25567;48.276;14.242;2022-10-03T00:04:49;98821.03;;;11.30;100.00
39897;BME280;25567;48.276;14.242;2022-10-03T00:08:16;98830.16;;;11.34;100.00
39897;BME280;25567;48.276;14.242;2022-10-03T00:10:37;98832.22;;;11.32;100.00
39897;BME280;25567;48.276;14.242;2022-10-03T00:13:19;98834.75;;;11.27;100.00
39897;BME280;25567;48.276;14.242;2022-10-03T00:29:41;98849.56;;;11.35;100.00
39897;BME280;25567;48.276;14.242;2022-10-03T00:32:25;98856.44;;;11.24;100.00
39897;BME280;25567;48.276;14.242;2022-10-03T00:35:10;98867.81;;;11.31;100.00
39897;BME280;25567;48.276;14.242;2022-10-03T00:37:57;98858.91;;;11.38;100.00
39897;BME280;25567;48.276;14.242;2022-10-03T00:43:16;98859.22;;;11.29;100.00
39897;BME280;25567;48.276;14.242;2022-10-03T00:51:29;98859.16;;;11.17;100.00
39897;BME280;25567;48.276;14.242;2022-10-03T01:01:44;98865.16;;;11.13;100.00
39897;BME280;25567;48.276;14.242;2022-10-03T01:10:05;98870.09;;;11.09;100.00
39897;BME280;25567;48.276;14.242;2022-10-03T01:15:37;98869.47;;;10.89;100.00
39897;BME280;25567;48.276;14.242;2022-10-03T01:18:12;98871.50;;;10.93;100.00
39897;BME280;25567;48.276;14.242;2022-10-03T01:20:57;98867.59;;;10.96;100.00
39897;BME280;25567;48.276;14.242;2022-10-03T01:31:55;98876.88;;;10.87;100.00
39897;BME280;25567;48.276;14.242;2022-10-03T01:34:43;98871.97;;;10.83;100.00
39897;BME280;25567;48.276;14.242;2022-10-03T01:37:18;98875.09;;;10.80;100.00
39897;BME280;25567;48.276;14.242;2022-10-03T01:43:03;98885.31;;;10.77;100.00
39897;BME280;25567;48.276;14.242;2022-10-03T01:45:43;98883.66;;;10.82;100.00
39897;BME280;25567;48.276;14.242;2022-10-03T01:48:21;98887.63;;;10.73;100.00
39897;BME280;25567;48.276;14.242;2022-10-03T01:50:57;98891.06;;;10.74;100.00
39897;BME280;25567;48.276;14.242;2022-10-03T01:56:20;98895.81;;;10.65;100.00
39897;BME280;25567;48.276;14.242;2022-10-03T01:59:13;98889.88;;;10.70;100.00
39897;BME280;25567;48.276;14.242;2022-10-03T02:04:30;98901.19;;;10.58;100.00
39897;BME280;25567;48.276;14.242;2022-10-03T02:07:17;98901.41;;;10.57;100.00
39897;BME280;25567;48.276;14.242;2022-10-03T02:12:38;98911.81;;;10.58;100.00
39897;BME280;25567;48.276;14.242;2022-10-03T02:15:18;98914.91;;;10.55;100.00
39897;BME280;25567;48.276;14.242;2022-10-03T02:20:46;98923.34;;;10.45;100.00
39897;BME280;25567;48.276;14.242;2022-10-03T02:23:36;98924.53;;;10.49;100.00
39897;BME280;25567;48.276;14.242;2022-10-03T02:26:24;98925.00;;;10.40;100.00
39897;BME280;25567;48.276;14.242;2022-10-03T02:32:09;98929.94;;;10.36;100.00
39897;BME280;25567;48.276;14.242;2022-10-03T02:37:40;98939.31;;;10.39;100.00
39897;BME280;25567;48.276;14.242;2022-10-03T02:46:07;98936.44;;;10.40;100.00
39897;BME280;25567;48.276;14.242;2022-10-03T02:48:46;98944.78;;;10.44;100.00
39897;BME280;25567;48.276;14.242;2022-10-03T02:54:08;98951.16;;;10.36;100.00
39897;BME280;25567;48.276;14.242;2022-10-03T02:57:15;98950.75;;;10.32;100.00
39897;BME280;25567;48.276;14.242;2022-10-03T03:02:53;98961.59;;;10.24;100.00
39897;BME280;25567;48.276;14.242;2022-10-03T03:05:28;98961.22;;;10.21;100.00
39897;BME280;25567;48.276;14.242;2022-10-03T03:13:44;98986.22;;;10.31;100.00
39897;BME280;25567;48.276;14.242;2022-10-03T03:16:41;98990.16;;;10.22;100.00
39897;BME280;25567;48.276;14.242;2022-10-03T03:38:45;99001.44;;;10.11;100.00
39897;BME280;25567;48.276;14.242;2022-10-03T03:41:35;99002.66;;;10.15;100.00
39897;BME280;25567;48.276;14.242;2022-10-03T03:44:29;99002.63;;;10.22;100.00
39897;BME280;25567;48.276;14.242;2022-10-03T03:53:18;99011.63;;;10.14;100.00
39897;BME280;25567;48.276;14.242;2022-10-03T03:59:06;99015.97;;;10.01;100.00
39897;BME280;25567;48.276;14.242;2022-10-03T04:01:43;99018.53;;;10.22;100.00
39897;BME280;25567;48.276;14.242;2022-10-03T04:15:52;99023.41;;;10.18;100.00
39897;BME280;25567;48.276;14.242;2022-10-03T04:18:31;99020.16;;;10.23;100.00
39897;BME280;25567;48.276;14.242;2022-10-03T04:21:34;99023.56;;;10.30;100.00
39897;BME280;25567;48.276;14.242;2022-10-03T04:26:58;99033.19;;;10.24;100.00
39897;BME280;25567;48.276;14.242;2022-10-03T04:32:29;99031.56;;;10.23;100.00
39897;BME280;25567;48.276;14.242;2022-10-03T04:43:38;99037.66;;;10.24;100.00
39897;BME280;25567;48.276;14.242;2022-10-03T04:54:29;99034.78;;;10.39;100.00
39897;BME280;25567;48.276;14.242;2022-10-03T04:57:04;99035.19;;;10.29;100.00
39897;BME280;25567;48.276;14.242;2022-10-03T05:02:33;99036.47;;;10.19;100.00
39897;BME280;25567;48.276;14.242;2022-10-03T05:07:57;99047.81;;;10.33;100.00
39897;BME280;25567;48.276;14.242;2022-10-03T05:10:54;99055.38;;;10.37;100.00
39897;BME280;25567;48.276;14.242;2022-10-03T05:13:47;99047.56;;;10.48;100.00
39897;BME280;25567;48.276;14.242;2022-10-03T05:16:30;99045.56;;;10.44;100.00
39897;BME280;25567;48.276;14.242;2022-10-03T05:19:23;99058.88;;;10.37;100.00
39897;BME280;25567;48.276;14.242;2022-10-03T05:22:01;99060.66;;;10.43;100.00
39897;BME280;25567;48.276;14.242;2022-10-03T05:24:37;99068.38;;;10.45;100.00
39897;BME280;25567;48.276;14.242;2022-10-03T05:32:38;99064.44;;;10.54;100.00
39897;BME280;25567;48.276;14.242;2022-10-03T05:35:28;99063.88;;;10.52;100.00
39897;BME280;25567;48.276;14.242;2022-10-03T05:41:00;99082.47;;;10.45;100.00
39897;BME280;25567;48.276;14.242;2022-10-03T05:43:45;99082.06;;;10.42;100.00
39897;BME280;25567;48.276;14.242;2022-10-03T05:46:37;99078.16;;;10.51;100.00
39897;BME280;25567;48.276;14.242;2022-10-03T06:00:31;99095.50;;;10.47;100.00
39897;BME280;25567;48.276;14.242;2022-10-03T06:11:29;99107.31;;;10.51;100.00
39897;BME280;25567;48.276;14.242;2022-10-03T06:14:29;99104.84;;;10.56;100.00
39897;BME280;25567;48.276;14.242;2022-10-03T06:17:03;99109.16;;;10.57;100.00
39897;BME280;25567;48.276;14.242;2022-10-03T06:23:06;99122.78;;;10.61;100.00
39897;BME280;25567;48.276;14.242;2022-10-03T06:37:05;99116.41;;;10.68;100.00
39897;BME280;25567;48.276;14.242;2022-10-03T06:42:40;99106.31;;;10.84;100.00
39897;BME280;25567;48.276;14.242;2022-10-03T06:56:43;99124.28;;;10.82;100.00
39897;BME280;25567;48.276;14.242;2022-10-03T07:04:37;99128.28;;;10.98;100.00
39897;BME280;25567;48.276;14.242;2022-10-03T07:21:47;99143.00;;;10.94;100.00
39897;BME280;25567;48.276;14.242;2022-10-03T07:24:25;99148.97;;;10.89;100.00
39897;BME280;25567;48.276;14.242;2022-10-03T07:27:16;99158.56;;;10.90;100.00
39897;BME280;25567;48.276;14.242;2022-10-03T07:50:14;99172.47;;;11.17;100.00
39897;BME280;25567;48.276;14.242;2022-10-03T07:53:00;99180.38;;;11.24;100.00
39897;BME280;25567;48.276;14.242;2022-10-03T07:58:52;99184.44;;;11.27;100.00
39897;BME280;25567;48.276;14.242;2022-10-03T08:01:34;99181.41;;;11.23;100.00
39897;BME280;25567;48.276;14.242;2022-10-03T08:12:37;99190.66;;;11.46;100.00
39897;BME280;25567;48.276;14.242;2022-10-03T08:15:18;99180.97;;;11.58;100.00
39897;BME280;25567;48.276;14.242;2022-10-03T08:18:22;99183.84;;;11.57;100.00
39897;BME280;25567;48.276;14.242;2022-10-03T08:20:55;99189.56;;;11.54;100.00
39897;BME280;25567;48.276;14.242;2022-10-03T08:26:50;99186.72;;;11.55;100.00
39897;BME280;25567;48.276;14.242;2022-10-03T08:35:43;99190.22;;;11.49;100.00
39897;BME280;25567;48.276;14.242;2022-10-03T08:47:05;99195.38;;;11.44;100.00
39897;BME280;25567;48.276;14.242;2022-10-03T08:49:59;99202.22;;;11.58;100.00
39897;BME280;25567;48.276;14.242;2022-10-03T08:55:18;99197.47;;;11.85;100.00
39897;BME280;25567;48.276;14.242;2022-10-03T08:58:16;99189.84;;;11.96;100.00
39897;BME280;25567;48.276;14.242;2022-10-03T09:04:02;99201.34;;;12.15;100.00
39897;BME280;25567;48.276;14.242;2022-10-03T09:30:07;99179.28;;;13.24;95.73
39897;BME280;25567;48.276;14.242;2022-10-03T09:35:52;99199.56;;;13.25;92.40
39897;BME280;25567;48.276;14.242;2022-10-03T09:44:08;99192.69;;;13.48;87.46
39897;BME280;25567;48.276;14.242;2022-10-03T09:46:49;99180.88;;;13.56;85.73
39897;BME280;25567;48.276;14.242;2022-10-03T09:52:57;99194.78;;;13.70;84.20
39897;BME280;25567;48.276;14.242;2022-10-03T09:56:13;99195.94;;;13.74;80.46
39897;BME280;25567;48.276;14.242;2022-10-03T09:58:58;99181.13;;;13.78;79.08
39897;BME280;25567;48.276;14.242;2022-10-03T10:01:38;99192.50;;;13.85;79.00
39897;BME280;25567;48.276;14.242;2022-10-03T10:21:35;99184.00;;;14.24;65.96
39897;BME280;25567;48.276;14.242;2022-10-03T10:32:58;99184.06;;;14.52;61.45
39897;BME280;25567;48.276;14.242;2022-10-03T10:44:21;99190.41;;;14.75;64.69
39897;BME280;25567;48.276;14.242;2022-10-03T10:47:11;99178.13;;;14.50;66.54
39897;BME280;25567;48.276;14.242;2022-10-03T10:55:53;99176.97;;;14.58;68.97
39897;BME280;25567;48.276;14.242;2022-10-03T11:13:35;99196.16;;;14.31;67.58
39897;BME280;25567;48.276;14.242;2022-10-03T11:36:15;99194.28;;;14.44;70.05
39897;BME280;25567;48.276;14.242;2022-10-03T11:39:02;99198.00;;;14.31;68.84
39897;BME280;25567;48.276;14.242;2022-10-03T11:41:50;99189.66;;;14.39;70.57
39897;BME280;25567;48.276;14.242;2022-10-03T11:44:23;99185.34;;;14.50;72.00
39897;BME280;25567;48.276;14.242;2022-10-03T12:03:57;99170.53;;;14.83;65.35
39897;BME280;25567;48.276;14.242;2022-10-03T12:12:29;99154.91;;;14.63;67.34
39897;BME280;25567;48.276;14.242;2022-10-03T12:15:11;99147.72;;;14.51;66.67
39897;BME280;25567;48.276;14.242;2022-10-03T12:17:47;99152.63;;;14.43;66.09
39897;BME280;25567;48.276;14.242;2022-10-03T12:20:18;99145.91;;;14.40;67.83
39897;BME280;25567;48.276;14.242;2022-10-03T12:25:33;99149.66;;;14.56;68.08
39897;BME280;25567;48.276;14.242;2022-10-03T12:28:14;99153.72;;;14.59;66.67
39897;BME280;25567;48.276;14.242;2022-10-03T12:31:13;99149.34;;;14.52;66.78
39897;BME280;25567;48.276;14.242;2022-10-03T12:38:55;99150.84;;;14.72;65.34
39897;BME280;25567;48.276;14.242;2022-10-03T12:44:14;99158.25;;;14.70;66.61
39897;BME280;25567;48.276;14.242;2022-10-03T12:52:23;99151.56;;;14.44;67.31
39897;BME280;25567;48.276;14.242;2022-10-03T12:54:56;99154.97;;;14.39;66.09
39897;BME280;25567;48.276;14.242;2022-10-03T12:57:38;99146.25;;;14.44;67.93
39897;BME280;25567;48.276;14.242;2022-10-03T13:00:21;99148.34;;;14.42;68.61
39897;BME280;25567;48.276;14.242;2022-10-03T13:27:35;99155.72;;;14.63;68.12
39897;BME280;25567;48.276;14.242;2022-10-03T13:30:05;99161.72;;;14.71;67.03
39897;BME280;25567;48.276;14.242;2022-10-03T13:32:43;99160.13;;;14.70;69.14
39897;BME280;25567;48.276;14.242;2022-10-03T13:35:24;99158.97;;;14.65;67.17
39897;BME280;25567;48.276;14.242;2022-10-03T13:38:39;99161.06;;;14.63;67.73
39897;BME280;25567;48.276;14.242;2022-10-03T13:46:32;99157.91;;;14.95;68.97
39897;BME280;25567;48.276;14.242;2022-10-03T13:49:12;99154.16;;;15.08;67.28
39897;BME280;25567;48.276;14.242;2022-10-03T13:52:16;99163.44;;;15.06;67.70
39897;BME280;25567;48.276;14.242;2022-10-03T13:57:31;99154.00;;;14.86;67.61
39897;BME280;25567;48.276;14.242;2022-10-03T14:00:04;99170.81;;;14.70;69.31
39897;BME280;25567;48.276;14.242;2022-10-03T14:08:02;99166.41;;;14.63;65.79
39897;BME280;25567;48.276;14.242;2022-10-03T14:10:51;99164.09;;;14.55;65.57
39897;BME280;25567;48.276;14.242;2022-10-03T14:13:35;99161.81;;;14.47;64.18
39897;BME280;25567;48.276;14.242;2022-10-03T14:16:18;99164.47;;;14.47;64.90
39897;BME280;25567;48.276;14.242;2022-10-03T14:22:02;99168.06;;;14.41;66.67
39897;BME280;25567;48.276;14.242;2022-10-03T14:30:15;99158.19;;;14.41;67.88
39897;BME280;25567;48.276;14.242;2022-10-03T14:33:02;99161.09;;;14.40;67.31
39897;BME280;25567;48.276;14.242;2022-10-03T14:41:21;99157.38;;;14.52;69.75
39897;BME280;25567;48.276;14.242;2022-10-03T14:43:54;99160.84;;;14.53;69.64
39897;BME280;25567;48.276;14.242;2022-10-03T14:46:27;99159.22;;;14.52;69.14
39897;BME280;25567;48.276;14.242;2022-10-03T14:48:59;99160.50;;;14.49;67.87
39897;BME280;25567;48.276;14.242;2022-10-03T14:51:36;99163.41;;;14.48;67.26
39897;BME280;25567;48.276;14.242;2022-10-03T14:54:14;99171.31;;;14.43;67.93
39897;BME280;25567;48.276;14.242;2022-10-03T14:56:45;99164.81;;;14.39;67.89
39897;BME280;25567;48.276;14.242;2022-10-03T14:59:30;99162.03;;;14.33;68.51
39897;BME280;25567;48.276;14.242;2022-10-03T15:02:03;99163.25;;;14.26;68.73
39897;BME280;25567;48.276;14.242;2022-10-03T15:04:45;99164.84;;;14.15;69.28
39897;BME280;25567;48.276;14.242;2022-10-03T15:07:13;99158.25;;;14.17;69.09
39897;BME280;25567;48.276;14.242;2022-10-03T15:09:45;99163.16;;;14.09;70.36
39897;BME280;25567;48.276;14.242;2022-10-03T15:12:18;99165.69;;;14.15;69.89
39897;BME280;25567;48.276;14.242;2022-10-03T15:14:56;99163.03;;;14.04;70.08
39897;BME280;25567;48.276;14.242;2022-10-03T15:17:32;99160.84;;;14.00;70.30
39897;BME280;25567;48.276;14.242;2022-10-03T15:20:01;99160.13;;;13.93;70.13
39897;BME280;25567;48.276;14.242;2022-10-03T15:22:32;99160.50;;;13.97;70.26
39897;BME280;25567;48.276;14.242;2022-10-03T15:27:32;99152.50;;;13.85;71.71
39897;BME280;25567;48.276;14.242;2022-10-03T15:30:04;99146.44;;;13.90;71.00
39897;BME280;25567;48.276;14.242;2022-10-03T15:35:02;99163.03;;;13.92;72.28
39897;BME280;25567;48.276;14.242;2022-10-03T15:37:32;99155.63;;;13.82;72.58
39897;BME280;25567;48.276;14.242;2022-10-03T15:40:08;99161.41;;;13.91;72.42
39897;BME280;25567;48.276;14.242;2022-10-03T15:42:48;99158.63;;;13.97;73.28
39897;BME280;25567;48.276;14.242;2022-10-03T15:45:22;99162.56;;;13.95;71.54
39897;BME280;25567;48.276;14.242;2022-10-03T15:47:50;99171.97;;;13.85;71.57
39897;BME280;25567;48.276;14.242;2022-10-03T15:50:34;99166.75;;;13.79;72.80
39897;BME280;25567;48.276;14.242;2022-10-03T15:53:11;99175.09;;;13.94;72.94
39897;BME280;25567;48.276;14.242;2022-10-03T15:56:12;99176.03;;;13.88;73.47
39897;BME280;25567;48.276;14.242;2022-10-03T15:58:57;99169.19;;;13.80;72.93
39897;BME280;25567;48.276;14.242;2022-10-03T16:01:31;99178.34;;;13.73;72.23
39897;BME280;25567;48.276;14.242;2022-10-03T16:04:02;99182.63;;;13.74;73.46
39897;BME280;25567;48.276;14.242;2022-10-03T16:06:50;99180.31;;;13.77;73.16
39897;BME280;25567;48.276;14.242;2022-10-03T16:09:25;99187.16;;;13.85;73.29
39897;BME280;25567;48.276;14.242;2022-10-03T16:14:41;99183.88;;;13.59;75.07
39897;BME280;25567;48.276;14.242;2022-10-03T16:17:16;99186.66;;;13.52;76.01
39897;BME280;25567;48.276;14.242;2022-10-03T16:22:20;99189.44;;;13.46;75.96
39897;BME280;25567;48.276;14.242;2022-10-03T16:25:10;99187.34;;;13.48;76.44
39897;BME280;25567;48.276;14.242;2022-10-03T16:27:51;99180.41;;;13.47;77.04
39897;BME280;25567;48.276;14.242;2022-10-03T16:30:21;99193.72;;;13.47;75.58
39897;BME280;25567;48.276;14.242;2022-10-03T16:32:58;99190.06;;;13.29;77.23
39897;BME280;25567;48.276;14.242;2022-10-03T16:38:04;99190.63;;;13.20;79.25
39897;BME280;25567;48.276;14.242;2022-10-03T16:40:33;99189.09;;;13.12;79.03
39897;BME280;25567;48.276;14.242;2022-10-03T16:43:04;99191.63;;;13.07;79.74
39897;BME280;25567;48.276;14.242;2022-10-03T16:45:40;99194.25;;;12.95;80.78
39897;BME280;25567;48.276;14.242;2022-10-03T16:48:16;99185.44;;;12.94;81.54
39897;BME280;25567;48.276;14.242;2022-10-03T16:51:00;99183.31;;;12.84;82.41
39897;BME280;25567;48.276;14.242;2022-10-03T16:53:28;99179.56;;;12.74;82.86
39897;BME280;25567;48.276;14.242;2022-10-03T16:56:02;99177.00;;;12.67;84.14
39897;BME280;25567;48.276;14.242;2022-10-03T16:58:33;99185.88;;;12.61;84.53
39897;BME280;25567;48.276;14.242;2022-10-03T17:01:07;99182.25;;;12.55;85.87
39897;BME280;25567;48.276;14.242;2022-10-03T17:04:03;99183.91;;;12.56;87.83
39897;BME280;25567;48.276;14.242;2022-10-03T17:06:37;99186.84;;;12.48;87.35
39897;BME280;25567;48.276;14.242;2022-10-03T17:09:20;99197.06;;;12.51;88.49
39897;BME280;25567;48.276;14.242;2022-10-03T17:11:53;99201.41;;;12.45;88.33
39897;BME280;25567;48.276;14.242;2022-10-03T17:14:22;99214.03;;;12.50;88.68
39897;BME280;25567;48.276;14.242;2022-10-03T17:16:57;99206.88;;;12.50;87.92
39897;BME280;25567;48.276;14.242;2022-10-03T17:19:36;99212.88;;;12.46;87.17
39897;BME280;25567;48.276;14.242;2022-10-03T17:22:12;99204.72;;;12.41;87.29
39897;BME280;25567;48.276;14.242;2022-10-03T17:24:46;99202.88;;;12.41;88.25
39897;BME280;25567;48.276;14.242;2022-10-03T17:29:51;99216.25;;;12.34;88.26
39897;BME280;25567;48.276;14.242;2022-10-03T17:32:25;99211.75;;;12.35;87.20
39897;BME280;25567;48.276;14.242;2022-10-03T17:34:59;99202.75;;;12.36;85.97
39897;BME280;25567;48.276;14.242;2022-10-03T17:40:22;99202.06;;;12.41;84.85
39897;BME280;25567;48.276;14.242;2022-10-03T17:42:58;99195.72;;;12.42;84.48
39897;BME280;25567;48.276;14.242;2022-10-03T17:45:44;99210.84;;;12.41;84.30
39897;BME280;25567;48.276;14.242;2022-10-03T17:48:20;99211.38;;;12.31;85.09
39897;BME280;25567;48.276;14.242;2022-10-03T17:51:18;99225.34;;;12.27;85.81
39897;BME280;25567;48.276;14.242;2022-10-03T17:53:50;99216.22;;;12.16;86.31
39897;BME280;25567;48.276;14.242;2022-10-03T17:56:24;99216.47;;;12.14;87.80
39897;BME280;25567;48.276;14.242;2022-10-03T17:59:02;99218.09;;;12.15;85.26
39897;BME280;25567;48.276;14.242;2022-10-03T18:01:35;99222.63;;;12.15;84.77
39897;BME280;25567;48.276;14.242;2022-10-03T18:04:13;99224.06;;;12.11;85.54
39897;BME280;25567;48.276;14.242;2022-10-03T18:06:45;99219.19;;;12.08;86.37
39897;BME280;25567;48.276;14.242;2022-10-03T18:11:41;99219.25;;;12.01;86.33
39897;BME280;25567;48.276;14.242;2022-10-03T18:14:15;99212.47;;;12.05;86.44
39897;BME280;25567;48.276;14.242;2022-10-03T18:16:50;99209.81;;;12.05;87.24
39897;BME280;25567;48.276;14.242;2022-10-03T18:19:22;99209.00;;;12.05;85.78
39897;BME280;25567;48.276;14.242;2022-10-03T18:27:32;99217.84;;;11.98;86.78
39897;BME280;25567;48.276;14.242;2022-10-03T18:30:11;99216.00;;;11.92;87.33
39897;BME280;25567;48.276;14.242;2022-10-03T18:32:40;99206.66;;;11.90;87.11
39897;BME280;25567;48.276;14.242;2022-10-03T18:35:20;99212.22;;;12.07;86.06
39897;BME280;25567;48.276;14.242;2022-10-03T18:37:53;99209.88;;;11.98;85.89
39897;BME280;25567;48.276;14.242;2022-10-03T18:40:27;99214.25;;;11.86;85.71
39897;BME280;25567;48.276;14.242;2022-10-03T18:42:55;99217.13;;;11.84;86.17
39897;BME280;25567;48.276;14.242;2022-10-03T18:45:28;99218.78;;;11.79;87.55
39897;BME280;25567;48.276;14.242;2022-10-03T18:48:03;99217.75;;;11.80;86.85
39897;BME280;25567;48.276;14.242;2022-10-03T18:55:58;99219.97;;;11.58;88.00
39897;BME280;25567;48.276;14.242;2022-10-03T18:58:32;99221.19;;;11.62;86.54
39897;BME280;25567;48.276;14.242;2022-10-03T19:01:11;99224.72;;;11.56;86.78
39897;BME280;25567;48.276;14.242;2022-10-03T19:03:57;99224.28;;;11.59;86.28
39897;BME280;25567;48.276;14.242;2022-10-03T19:06:28;99228.50;;;11.66;85.12
39897;BME280;25567;48.276;14.242;2022-10-03T19:09:02;99229.00;;;11.57;86.95
39897;BME280;25567;48.276;14.242;2022-10-03T19:11:40;99218.59;;;11.55;87.40
39897;BME280;25567;48.276;14.242;2022-10-03T19:14:33;99218.16;;;11.58;86.06
39897;BME280;25567;48.276;14.242;2022-10-03T19:17:23;99218.72;;;11.60;86.12
39897;BME280;25567;48.276;14.242;2022-10-03T19:19:57;99214.88;;;11.56;87.45
39897;BME280;25567;48.276;14.242;2022-10-03T19:22:30;99216.53;;;11.57;86.68
39897;BME280;25567;48.276;14.242;2022-10-03T19:25:02;99209.41;;;11.51;85.98
39897;BME280;25567;48.276;14.242;2022-10-03T19:27:51;99213.75;;;11.45;87.37
39897;BME280;25567;48.276;14.242;2022-10-03T19:30:25;99216.66;;;11.37;87.50
39897;BME280;25567;48.276;14.242;2022-10-03T19:35:23;99221.53;;;11.40;87.19
39897;BME280;25567;48.276;14.242;2022-10-03T19:37:54;99216.28;;;11.33;87.20
39897;BME280;25567;48.276;14.242;2022-10-03T19:42:50;99221.00;;;11.31;88.03
39897;BME280;25567;48.276;14.242;2022-10-03T19:45:19;99221.00;;;11.31;87.46
39897;BME280;25567;48.276;14.242;2022-10-03T19:47:51;99216.88;;;11.35;86.90
39897;BME280;25567;48.276;14.242;2022-10-03T19:50:28;99218.53;;;11.37;86.12
39897;BME280;25567;48.276;14.242;2022-10-03T19:52:58;99214.19;;;11.42;86.44
39897;BME280;25567;48.276;14.242;2022-10-03T19:55:33;99215.69;;;11.31;87.04
39897;BME280;25567;48.276;14.242;2022-10-03T19:58:14;99213.41;;;11.35;85.69
39897;BME280;25567;48.276;14.242;2022-10-03T20:00:50;99210.97;;;11.33;85.62
39897;BME280;25567;48.276;14.242;2022-10-03T20:06:13;99215.09;;;11.29;85.80
39897;BME280;25567;48.276;14.242;2022-10-03T20:08:47;99215.00;;;11.43;86.26
39897;BME280;25567;48.276;14.242;2022-10-03T20:14:12;99215.88;;;11.30;84.98
39897;BME280;25567;48.276;14.242;2022-10-03T20:16:43;99214.31;;;11.22;84.87
39897;BME280;25567;48.276;14.242;2022-10-03T20:19:15;99214.56;;;11.14;87.32
39897;BME280;25567;48.276;14.242;2022-10-03T20:21:50;99215.78;;;11.18;86.90
39897;BME280;25567;48.276;14.242;2022-10-03T20:26:57;99215.47;;;11.01;87.28
39897;BME280;25567;48.276;14.242;2022-10-03T20:29:31;99216.91;;;10.97;88.07
39897;BME280;25567;48.276;14.242;2022-10-03T20:32:01;99212.66;;;10.89;89.35
39897;BME280;25567;48.276;14.242;2022-10-03T20:34:29;99222.47;;;10.82;89.20
39897;BME280;25567;48.276;14.242;2022-10-03T20:37:16;99210.59;;;10.91;88.00
39897;BME280;25567;48.276;14.242;2022-10-03T20:39:48;99214.91;;;10.85;88.70
39897;BME280;25567;48.276;14.242;2022-10-03T20:42:21;99218.00;;;10.82;88.63
39897;BME280;25567;48.276;14.242;2022-10-03T20:45:05;99208.59;;;10.87;87.80
39897;BME280;25567;48.276;14.242;2022-10-03T20:47:59;99205.38;;;10.71;89.07
39897;BME280;25567;48.276;14.242;2022-10-03T20:50:35;99209.50;;;10.60;89.13
39897;BME280;25567;48.276;14.242;2022-10-03T20:53:21;99207.03;;;10.65;89.38
39897;BME280;25567;48.276;14.242;2022-10-03T20:55:52;99205.75;;;10.81;87.42
39897;BME280;25567;48.276;14.242;2022-10-03T20:58:27;99203.75;;;10.70;88.03
39897;BME280;25567;48.276;14.242;2022-10-03T21:01:01;99200.75;;;10.60;88.80
39897;BME280;25567;48.276;14.242;2022-10-03T21:03:36;99203.06;;;10.43;90.76
39897;BME280;25567;48.276;14.242;2022-10-03T21:06:16;99199.19;;;10.25;91.59
39897;BME280;25567;48.276;14.242;2022-10-03T21:08:45;99195.50;;;10.26;91.89
39897;BME280;25567;48.276;14.242;2022-10-03T21:11:22;99195.50;;;10.26;91.50
39897;BME280;25567;48.276;14.242;2022-10-03T21:13:57;99198.78;;;10.28;91.14
39897;BME280;25567;48.276;14.242;2022-10-03T21:16:28;99191.44;;;10.24;92.12
39897;BME280;25567;48.276;14.242;2022-10-03T21:18:59;99196.72;;;10.24;92.08
39897;BME280;25567;48.276;14.242;2022-10-03T21:21:36;99188.19;;;10.22;92.01
39897;BME280;25567;48.276;14.242;2022-10-03T21:24:14;99185.28;;;10.43;90.62
39897;BME280;25567;48.276;14.242;2022-10-03T21:26:53;99185.03;;;10.58;89.13
39897;BME280;25567;48.276;14.242;2022-10-03T21:29:29;99183.69;;;10.35;89.77
39897;BME280;25567;48.276;14.242;2022-10-03T21:32:28;99195.91;;;10.43;89.84
39897;BME280;25567;48.276;14.242;2022-10-03T21:41:02;99191.41;;;10.30;90.85
39897;BME280;25567;48.276;14.242;2022-10-03T21:43:47;99188.97;;;10.29;90.07
39897;BME280;25567;48.276;14.242;2022-10-03T21:46:38;99195.94;;;10.23;89.81
39897;BME280;25567;48.276;14.242;2022-10-03T21:49:30;99189.81;;;10.23;89.76
39897;BME280;25567;48.276;14.242;2022-10-03T21:52:22;99189.00;;;10.15;90.33
39897;BME280;25567;48.276;14.242;2022-10-03T21:57:30;99182.13;;;9.74;92.14
39897;BME280;25567;48.276;14.242;2022-10-03T22:00:15;99193.16;;;9.51;93.57
39897;BME280;25567;48.276;14.242;2022-10-03T22:03:05;99191.94;;;9.60;93.19
39897;BME280;25567;48.276;14.242;2022-10-03T22:05:41;99189.06;;;9.35;94.95
39897;BME280;25567;48.276;14.242;2022-10-03T22:08:13;99186.44;;;9.42;94.85
39897;BME280;25567;48.276;14.242;2022-10-03T22:10:51;99188.25;;;9.28;94.79
39897;BME280;25567;48.276;14.242;2022-10-03T22:13:23;99174.78;;;9.16;95.81
39897;BME280;25567;48.276;14.242;2022-10-03T22:15:57;99189.00;;;9.01;96.32
39897;BME280;25567;48.276;14.242;2022-10-03T22:18:30;99187.97;;;8.89;97.22
39897;BME280;25567;48.276;14.242;2022-10-03T22:21:09;99181.06;;;8.95;98.21
39897;BME280;25567;48.276;14.242;2022-10-03T22:23:50;99190.38;;;8.77;98.74
39897;BME280;25567;48.276;14.242;2022-10-03T22:26:33;99178.94;;;8.63;100.00
39897;BME280;25567;48.276;14.242;2022-10-03T22:29:22;99174.59;;;8.49;100.00
39897;BME280;25567;48.276;14.242;2022-10-03T22:31:58;99171.47;;;8.39;100.00
39897;BME280;25567;48.276;14.242;2022-10-03T22:34:49;99170.69;;;8.45;100.00
39897;BME280;25567;48.276;14.242;2022-10-03T22:37:20;99166.78;;;8.41;100.00
39897;BME280;25567;48.276;14.242;2022-10-03T22:39:48;99173.19;;;8.53;100.00
39897;BME280;25567;48.276;14.242;2022-10-03T22:42:15;99170.56;;;8.53;100.00
39897;BME280;25567;48.276;14.242;2022-10-03T22:44:45;99155.28;;;8.55;100.00
39897;BME280;25567;48.276;14.242;2022-10-03T22:47:20;99162.66;;;8.66;100.00
39897;BME280;25567;48.276;14.242;2022-10-03T22:49:50;99157.97;;;8.62;100.00